メキシコシティ の空港の天気 - METARとTAF

メキシコ・シティ国際空港 ( MMMX / MEX ) - メキシコ メキシコシティ
飛行場実況気象(Metar)
観測時間12/13 23:46 CST (12/14 05:46 UTC)
風向・風速北東 2m/s
視程10km以上
天気現象
少しの雲 雲底高度 2440m
全天の4割程度の雲 雲底高度 7010m
気温13℃
湿度47%
気圧1011.2hPa
METARMMMX 140546Z 04004KT 10SM FEW080 SCT230 13/02 A3032 NOSIG RMK SLP112 52008 904 8/032
過去の天気等 Google飛行場航空写真 Wunderground天気予報

過去48時間のMETAR

飛行場予報(TAF)
発表時間: 12/13 23:22 CST (12/14 05:22 UTC)
予報対象時間: 14日0時 CST ~ 15日6時 CST
風向・風速北北西 3m/s
視程10km以上
天気現象煙霧
全天の4割程度の雲 雲底高度 2440m
全天の8割程度の雲 雲底高度 7010m
14日6時 CST ~ 14日9時 CST に一時的に
全天の8割程度の雲 雲底高度 610m
14日12時 CST から
風向・風速西北西 5m/s 瞬間風速 10m/s
視程10km以上
全天の8割程度の雲 雲底高度 610m
全天の8割程度の雲 雲底高度 2440m
全天の8割程度の雲 雲底高度 7010m
14日16時 CST ~ 14日20時 CST に一時的に
全天の8割程度の雲 雲底高度 610m
14日21時 CST から
風向・風速北北西 5m/s
視程10km以上
天気現象煙霧
全天の4割程度の雲 雲底高度 610m
全天の8割程度の雲 雲底高度 2440m
全天の8割程度の雲 雲底高度 7010m
TAF COR MMMX 140522Z 1406/1512 33005KT 6SM HZ SCT080 BKN230 TX22/1421Z TN09/1412Z
TEMPO 1412/1415 BKN020
FM141800 30010G20KT P6SM BKN020 BKN080 BKN230
TEMPO 1422/1502 BKN020
FM150300 33010KT 6SM HZ SCT020 BKN080 BKN230